Time;durP1;ratioP1;P1;durP2;ratioP2;P2;SDS_P1;SDS_P2;PMS_P1;PMS_P2;Temp;Humidity;BMP_temperature;BMP_pressure;BME280_temperature;BME280_humidity;BME280_pressure;Samples;Min_cycle;Max_cycle;Signal;HPM_P1;HPM_P2
2023/02/23 00:00:07;;;;;;;21.27;16.00;;;8.30;99.90;;;;;;6326483;28;20964;-66
2023/02/23 00:03:11;;;;;;;20.57;14.20;;;8.30;99.90;;;;;;6312414;27;20480;-66
2023/02/23 00:06:14;;;;;;;14.83;13.20;;;8.30;99.90;;;;;;6321705;27;20486;-66
2023/02/23 00:09:23;;;;;;;20.33;14.70;;;8.30;99.90;;;;;;6318947;27;20479;-65
2023/02/23 00:12:26;;;;;;;20.63;14.10;;;8.30;99.90;;;;;;6322661;28;20429;-66
2023/02/23 00:15:30;;;;;;;18.43;13.53;;;8.30;99.90;;;;;;6322756;27;20444;-66
2023/02/23 00:18:43;;;;;;;18.17;14.37;;;8.20;99.90;;;;;;6323341;28;20466;-66
2023/02/23 00:21:47;;;;;;;21.20;15.10;;;8.20;99.90;;;;;;6322269;28;20456;-66
2023/02/23 00:24:50;;;;;;;13.87;12.50;;;8.10;99.90;;;;;;6322826;28;20464;-67
2023/02/23 00:27:53;;;;;;;18.60;13.10;;;8.10;99.90;;;;;;6323288;28;20452;-66
2023/02/23 00:30:58;;;;;;;15.60;13.97;;;8.10;99.90;;;;;;6322937;28;20456;-66
2023/02/23 00:34:04;;;;;;;17.13;13.50;;;8.00;99.90;;;;;;6323096;27;20476;-66
2023/02/23 00:37:07;;;;;;;17.07;13.97;;;8.00;99.90;;;;;;6322817;27;20781;-66
2023/02/23 00:40:15;;;;;;;19.77;16.33;;;8.00;99.90;;;;;;6323483;28;20468;-66
2023/02/23 00:43:18;;;;;;;23.70;16.37;;;8.00;99.90;;;;;;6335651;27;20476;-66
2023/02/23 00:46:26;;;;;;;19.77;15.23;;;7.90;99.90;;;;;;6324179;28;20460;-67
2023/02/23 00:49:29;;;;;;;18.93;14.60;;;7.80;99.90;;;;;;6325451;28;20495;-66
2023/02/23 00:52:32;;;;;;;18.40;14.27;;;7.80;99.90;;;;;;6327417;27;20881;-66
2023/02/23 00:55:36;;;;;;;18.67;15.47;;;7.70;99.90;;;;;;6327068;27;20475;-67
2023/02/23 00:58:39;;;;;;;16.33;14.53;;;7.70;99.90;;;;;;6326762;27;20475;-65
2023/02/23 01:01:45;;;;;;;20.47;15.47;;;7.70;99.90;;;;;;6327698;27;20472;-66
2023/02/23 01:04:48;;;;;;;20.87;14.23;;;7.60;99.90;;;;;;6323418;27;20464;-66
2023/02/23 01:07:51;;;;;;;19.20;15.23;;;7.60;99.90;;;;;;6327957;27;20483;-66
2023/02/23 01:10:54;;;;;;;16.40;13.60;;;7.60;99.90;;;;;;6327579;27;20480;-66
2023/02/23 01:13:59;;;;;;;18.43;13.87;;;7.60;99.90;;;;;;6327458;27;20990;-66
2023/02/23 01:17:03;;;;;;;20.30;14.33;;;7.50;99.90;;;;;;6327312;27;20940;-66
2023/02/23 01:20:14;;;;;;;18.03;14.63;;;7.50;99.90;;;;;;6327495;27;20476;-66
2023/02/23 01:23:17;;;;;;;20.50;14.77;;;7.50;99.90;;;;;;6327097;27;20549;-66
2023/02/23 01:26:25;;;;;;;20.93;14.53;;;7.50;99.90;;;;;;6327044;27;20488;-66
2023/02/23 01:29:29;;;;;;;20.17;15.57;;;7.40;99.90;;;;;;6325718;28;20487;-66
2023/02/23 01:32:35;;;;;;;17.80;13.73;;;7.40;99.90;;;;;;6325714;28;20464;-66
2023/02/23 01:35:38;;;;;;;17.70;13.70;;;7.30;99.90;;;;;;6326035;27;20460;-66
2023/02/23 01:38:41;;;;;;;19.17;14.07;;;7.30;99.90;;;;;;6325486;27;20476;-66
2023/02/23 01:41:45;;;;;;;20.10;16.10;;;7.30;99.90;;;;;;6326046;28;20472;-66
2023/02/23 01:45:23;;;;;;;20.30;14.23;;;7.20;99.90;;;;;;6325888;27;20480;-67
2023/02/23 01:48:30;;;;;;;18.93;14.10;;;7.20;99.90;;;;;;6326198;28;20889;-65
2023/02/23 01:51:41;;;;;;;20.60;15.33;;;7.20;99.90;;;;;;6324223;27;20467;-65
2023/02/23 01:54:49;;;;;;;23.60;15.37;;;7.10;99.90;;;;;;6317348;27;20631;-65
2023/02/23 01:57:58;;;;;;;22.13;14.30;;;7.00;99.90;;;;;;6325792;27;20464;-66
2023/02/23 02:01:01;;;;;;;18.53;14.67;;;7.00;99.90;;;;;;6325316;27;20479;-66
2023/02/23 02:04:07;;;;;;;18.57;12.70;;;6.90;99.90;;;;;;6323044;28;20994;-66
2023/02/23 02:07:13;;;;;;;22.63;14.70;;;6.90;99.90;;;;;;6325610;27;20464;-66
2023/02/23 02:13:39;;;;;;;17.57;13.43;;;6.80;99.90;;;;;;6324350;27;20476;-66
2023/02/23 02:16:53;;;;;;;21.27;14.47;;;6.80;99.90;;;;;;6326840;28;20476;-66
2023/02/23 02:20:45;;;;;;;20.40;14.70;;;6.80;99.90;;;;;;6325652;27;20487;-66
2023/02/23 02:24:09;;;;;;;18.40;14.13;;;6.80;99.90;;;;;;6315457;28;20477;-66
2023/02/23 02:27:26;;;;;;;19.60;14.00;;;6.80;99.90;;;;;;6325782;27;20464;-66
2023/02/23 02:31:15;;;;;;;22.10;14.10;;;6.70;99.90;;;;;;6325529;28;20900;-66
2023/02/23 02:35:07;;;;;;;19.70;15.47;;;6.70;99.90;;;;;;6325273;27;20810;-66
2023/02/23 02:38:28;;;;;;;18.87;15.07;;;6.60;99.90;;;;;;6272850;28;20840;-66
2023/02/23 02:41:41;;;;;;;19.60;14.70;;;6.60;99.90;;;;;;6279764;28;20485;-66
2023/02/23 02:44:52;;;;;;;18.17;14.80;;;6.50;99.90;;;;;;6325206;27;20501;-66
2023/02/23 02:48:01;;;;;;;22.60;15.23;;;6.50;99.90;;;;;;6325548;27;20469;-66
2023/02/23 02:51:11;;;;;;;23.60;16.20;;;6.50;99.90;;;;;;6324297;27;20906;-66
2023/02/23 02:54:25;;;;;;;21.17;15.53;;;6.50;99.90;;;;;;6324561;27;20472;-66
2023/02/23 02:57:29;;;;;;;21.00;16.10;;;6.50;99.90;;;;;;6331340;27;20463;-65
2023/02/23 04:19:06;;;;;;;21.60;15.70;;;6.20;99.90;;;;;;6329309;27;20479;-66
2023/02/23 04:22:09;;;;;;;21.53;16.67;;;6.20;99.90;;;;;;6328943;27;20495;-66
2023/02/23 04:25:14;;;;;;;20.77;15.30;;;6.20;99.90;;;;;;6328825;27;20476;-66
2023/02/23 04:28:19;;;;;;;17.63;15.70;;;6.20;99.90;;;;;;6328620;28;20456;-66
2023/02/23 04:31:23;;;;;;;22.13;17.60;;;6.20;99.90;;;;;;6328580;28;20464;-66
2023/02/23 04:34:29;;;;;;;25.13;17.47;;;6.20;99.90;;;;;;6328781;27;20952;-66
2023/02/23 04:37:32;;;;;;;21.27;16.93;;;6.30;99.90;;;;;;6328743;27;20468;-66
2023/02/23 04:40:35;;;;;;;20.73;15.30;;;6.20;99.90;;;;;;6328430;27;20467;-66
2023/02/23 04:43:38;;;;;;;19.70;16.17;;;6.20;99.90;;;;;;6328657;27;20480;-66
2023/02/23 04:46:41;;;;;;;19.73;15.87;;;6.30;99.90;;;;;;6328511;27;20939;-66
2023/02/23 04:49:46;;;;;;;20.47;16.13;;;6.30;99.90;;;;;;6328143;27;20468;-66
2023/02/23 04:52:51;;;;;;;23.13;16.10;;;6.30;99.90;;;;;;6328319;27;20488;-66
2023/02/23 04:55:54;;;;;;;21.50;16.60;;;6.30;99.90;;;;;;6328079;27;20936;-66
2023/02/23 04:58:57;;;;;;;19.50;14.77;;;6.30;99.90;;;;;;6327441;27;20468;-66
2023/02/23 05:02:01;;;;;;;22.87;16.33;;;6.20;99.90;;;;;;6327149;27;20472;-66
2023/02/23 05:05:08;;;;;;;23.00;14.70;;;6.20;99.90;;;;;;6337920;27;20940;-66
2023/02/23 05:08:11;;;;;;;20.77;17.03;;;6.10;99.90;;;;;;6332876;27;20629;-65
2023/02/23 05:11:14;;;;;;;32.13;18.10;;;6.10;99.90;;;;;;6327702;27;20479;-65
2023/02/23 05:14:17;;;;;;;22.27;16.37;;;6.10;99.90;;;;;;6327965;27;20479;-65
2023/02/23 05:17:20;;;;;;;17.93;15.20;;;6.00;99.90;;;;;;6327166;27;20460;-66
2023/02/23 05:20:25;;;;;;;23.40;16.73;;;6.00;99.90;;;;;;6327375;27;20476;-66
2023/02/23 05:23:29;;;;;;;24.27;17.67;;;6.00;99.90;;;;;;6318232;27;20479;-66
2023/02/23 05:26:32;;;;;;;21.50;15.93;;;6.00;99.90;;;;;;6326824;27;20479;-66
2023/02/23 05:29:36;;;;;;;20.83;16.43;;;6.00;99.90;;;;;;6327044;28;20499;-66
2023/02/23 05:32:39;;;;;;;24.13;17.37;;;6.00;99.90;;;;;;6327166;28;20834;-66
2023/02/23 05:35:44;;;;;;;17.63;14.70;;;5.90;99.90;;;;;;6327194;27;20476;-66
2023/02/23 05:38:48;;;;;;;18.80;16.30;;;6.00;99.90;;;;;;6326766;27;20473;-66
2023/02/23 05:41:51;;;;;;;21.43;14.83;;;5.90;99.90;;;;;;6327085;27;20480;-67
2023/02/23 05:44:54;;;;;;;20.43;16.83;;;6.00;99.90;;;;;;6326985;27;20472;-66
2023/02/23 05:47:58;;;;;;;22.07;15.90;;;5.90;99.90;;;;;;6326815;27;20472;-66
2023/02/23 05:51:04;;;;;;;24.00;15.67;;;5.90;99.90;;;;;;6326465;27;20780;-66
2023/02/23 05:54:07;;;;;;;27.73;17.73;;;5.90;99.90;;;;;;6326635;27;20805;-66
2023/02/23 05:57:10;;;;;;;22.73;15.03;;;5.90;99.90;;;;;;6326794;28;20784;-66
2023/02/23 06:00:14;;;;;;;18.17;15.17;;;5.90;99.90;;;;;;6326697;27;20480;-66
2023/02/23 06:03:17;;;;;;;24.60;17.33;;;6.00;99.90;;;;;;6326373;27;20476;-66
2023/02/23 06:06:24;;;;;;;25.67;16.60;;;6.10;99.90;;;;;;6327005;27;20521;-66
2023/02/23 06:09:27;;;;;;;22.73;17.40;;;6.10;99.90;;;;;;6326345;27;20457;-66
2023/02/23 06:12:30;;;;;;;21.33;15.40;;;6.10;99.90;;;;;;6326755;27;20436;-66
2023/02/23 06:15:33;;;;;;;25.73;17.30;;;6.00;99.90;;;;;;6326189;27;20544;-66
2023/02/23 06:18:37;;;;;;;25.20;17.70;;;6.00;99.90;;;;;;6326233;27;20481;-66
2023/02/23 06:21:41;;;;;;;26.00;17.73;;;6.00;99.90;;;;;;6325951;27;20482;-66
2023/02/23 06:24:45;;;;;;;26.53;18.27;;;6.10;99.90;;;;;;6321265;27;20812;-66
2023/02/23 06:27:48;;;;;;;26.70;18.07;;;6.10;99.90;;;;;;6326325;27;20971;-66
2023/02/23 06:30:52;;;;;;;25.17;18.60;;;6.20;99.90;;;;;;6325883;28;20487;-66
2023/02/23 06:33:56;;;;;;;22.40;17.43;;;6.20;99.90;;;;;;6325885;27;20468;-66
2023/02/23 06:37:00;;;;;;;26.90;18.80;;;6.30;99.90;;;;;;6325790;27;20476;-66
2023/02/23 06:40:04;;;;;;;21.87;16.43;;;6.30;99.90;;;;;;6325414;27;20817;-66
2023/02/23 06:43:07;;;;;;;17.90;16.00;;;6.30;99.90;;;;;;6325892;27;20468;-66
2023/02/23 06:46:11;;;;;;;24.13;16.97;;;6.40;99.90;;;;;;6325871;27;20479;-66
2023/02/23 06:49:14;;;;;;;25.00;17.30;;;6.40;99.90;;;;;;6325143;27;20483;-66
2023/02/23 06:52:20;;;;;;;28.57;17.43;;;6.50;99.90;;;;;;6325384;27;20475;-66
2023/02/23 06:55:23;;;;;;;23.83;18.83;;;6.50;99.90;;;;;;6325235;27;20476;-66
2023/02/23 06:58:27;;;;;;;26.20;18.93;;;6.60;99.90;;;;;;6326290;27;20464;-66
2023/02/23 07:01:30;;;;;;;23.60;17.90;;;6.70;99.90;;;;;;6324983;27;20821;-66
2023/02/23 07:04:33;;;;;;;27.63;18.70;;;6.80;99.90;;;;;;6325292;27;20960;-66
2023/02/23 07:07:38;;;;;;;23.90;17.87;;;7.00;99.90;;;;;;6324974;27;20460;-66
2023/02/23 07:10:42;;;;;;;29.00;19.87;;;7.10;99.90;;;;;;6333727;27;20487;-65
2023/02/23 07:13:45;;;;;;;22.83;19.40;;;7.20;99.90;;;;;;6335430;27;20460;-66
2023/02/23 07:16:48;;;;;;;27.27;21.03;;;7.40;99.90;;;;;;6325237;27;20475;-66
2023/02/23 07:19:52;;;;;;;22.37;19.93;;;7.40;99.90;;;;;;6324924;27;21062;-66
2023/02/23 07:22:56;;;;;;;28.33;20.10;;;7.30;99.90;;;;;;6325081;27;20480;-66
2023/02/23 07:26:00;;;;;;;23.93;19.97;;;7.40;99.90;;;;;;6324816;27;20465;-66
2023/02/23 07:29:04;;;;;;;33.97;21.77;;;7.60;99.90;;;;;;6324208;27;20483;-66
2023/02/23 07:32:07;;;;;;;29.00;20.53;;;7.70;99.90;;;;;;6315578;27;20771;-66
2023/02/23 07:35:12;;;;;;;27.00;21.17;;;7.70;99.90;;;;;;6324449;27;20845;-66
2023/02/23 07:38:16;;;;;;;27.03;20.37;;;7.80;99.90;;;;;;6324594;27;20479;-66
2023/02/23 07:41:20;;;;;;;29.30;21.80;;;7.80;99.90;;;;;;6324450;27;20483;-66
2023/02/23 07:44:23;;;;;;;24.90;22.00;;;7.90;99.90;;;;;;6324068;27;20480;-66
2023/02/23 07:47:29;;;;;;;22.93;19.83;;;8.00;99.90;;;;;;6323836;27;20475;-66
2023/02/23 07:50:33;;;;;;;25.93;19.90;;;8.20;99.90;;;;;;6323613;27;20561;-66
2023/02/23 07:53:37;;;;;;;22.87;20.40;;;8.30;99.90;;;;;;6324403;27;20479;-66
2023/02/23 07:56:40;;;;;;;28.30;20.13;;;8.40;99.90;;;;;;6324748;27;20482;-66
2023/02/23 07:59:44;;;;;;;27.13;19.90;;;8.50;99.90;;;;;;6324241;27;20480;-66
2023/02/23 08:02:47;;;;;;;26.73;19.43;;;8.80;99.90;;;;;;6324154;27;20480;-66
2023/02/23 08:05:50;;;;;;;27.80;19.57;;;9.10;99.90;;;;;;6324405;27;20799;-66
2023/02/23 08:08:55;;;;;;;24.50;19.40;;;9.20;99.90;;;;;;6324146;27;20477;-66
2023/02/23 08:11:58;;;;;;;27.13;19.20;;;9.20;99.90;;;;;;6324088;27;20473;-66
2023/02/23 08:15:01;;;;;;;29.87;21.63;;;9.40;99.90;;;;;;6324337;27;20468;-66
2023/02/23 08:18:05;;;;;;;24.63;18.73;;;9.50;99.90;;;;;;6324185;27;20479;-66
2023/02/23 08:21:08;;;;;;;27.03;18.43;;;9.70;99.90;;;;;;6323960;27;20587;-66
2023/02/23 08:24:13;;;;;;;27.03;19.50;;;9.80;99.80;;;;;;6323769;27;20480;-66
2023/02/23 08:27:16;;;;;;;22.40;18.03;;;10.00;99.10;;;;;;6323804;27;20559;-66
2023/02/23 08:30:22;;;;;;;25.43;18.93;;;10.10;98.90;;;;;;6323321;27;20471;-66
2023/02/23 08:33:25;;;;;;;23.53;18.60;;;10.20;98.90;;;;;;6319297;27;20478;-66
2023/02/23 08:36:29;;;;;;;24.30;19.37;;;10.30;98.80;;;;;;6324601;27;20448;-66
2023/02/23 08:39:33;;;;;;;26.20;17.60;;;10.50;98.70;;;;;;6324043;27;20465;-66
2023/02/23 08:42:36;;;;;;;25.13;19.03;;;10.60;98.70;;;;;;6323875;27;20948;-66
2023/02/23 08:45:40;;;;;;;19.43;16.83;;;10.70;98.40;;;;;;6316368;28;20469;-67
2023/02/23 08:48:43;;;;;;;18.33;15.67;;;10.80;98.50;;;;;;6305570;28;20548;-67
2023/02/23 08:51:46;;;;;;;23.93;17.60;;;11.10;98.10;;;;;;6323815;27;20464;-66
2023/02/23 08:54:51;;;;;;;22.27;16.70;;;11.40;97.70;;;;;;6307586;28;20488;-66
2023/02/23 08:57:54;;;;;;;26.33;17.27;;;11.60;97.20;;;;;;6298167;28;20984;-67
2023/02/23 09:00:58;;;;;;;22.30;18.20;;;11.70;96.80;;;;;;6298524;28;20473;-67
2023/02/23 09:04:01;;;;;;;26.63;17.80;;;11.90;96.60;;;;;;6322454;27;20964;-66
2023/02/23 09:07:05;;;;;;;17.93;16.03;;;12.10;96.20;;;;;;6327944;27;20956;-67
2023/02/23 09:10:13;;;;;;;21.63;17.93;;;12.20;95.80;;;;;;6327461;27;20472;-66
2023/02/23 09:13:16;;;;;;;17.63;14.87;;;12.20;95.60;;;;;;6327816;27;20467;-66
2023/02/23 09:16:19;;;;;;;18.30;15.53;;;12.10;95.20;;;;;;6332175;27;20471;-66
2023/02/23 09:19:23;;;;;;;20.30;16.80;;;12.10;95.10;;;;;;6332547;27;20465;-65
2023/02/23 09:22:26;;;;;;;21.47;17.40;;;12.00;94.90;;;;;;6302822;28;20817;-66
2023/02/23 09:25:31;;;;;;;20.57;15.30;;;12.00;94.90;;;;;;6302573;28;20483;-66
2023/02/23 09:28:36;;;;;;;21.67;16.30;;;11.90;94.90;;;;;;6325174;28;20854;-66
2023/02/23 09:31:42;;;;;;;20.80;16.23;;;11.90;94.90;;;;;;6327123;28;20972;-66
2023/02/23 09:34:47;;;;;;;25.27;16.37;;;11.90;95.00;;;;;;6327114;27;20484;-66
2023/02/23 09:37:53;;;;;;;26.23;17.67;;;11.80;95.20;;;;;;6322330;27;20522;-66
2023/02/23 09:40:58;;;;;;;19.93;17.13;;;11.70;94.90;;;;;;6327773;27;20963;-66
2023/02/23 09:44:04;;;;;;;24.57;17.00;;;11.70;94.90;;;;;;6326937;27;20480;-66
2023/02/23 09:47:21;;;;;;;21.90;17.80;;;11.60;95.00;;;;;;6326291;27;20468;-66
2023/02/23 09:50:28;;;;;;;28.13;18.43;;;11.60;95.10;;;;;;6326710;27;20569;-66
2023/02/23 09:53:36;;;;;;;24.27;17.30;;;11.50;95.30;;;;;;6318852;27;20461;-66
2023/02/23 09:56:45;;;;;;;20.93;16.53;;;11.40;95.60;;;;;;6301648;28;20775;-66
2023/02/23 09:59:48;;;;;;;21.23;17.07;;;11.40;95.80;;;;;;6301720;28;20477;-66
2023/02/23 10:03:09;;;;;;;20.50;17.37;;;11.30;95.80;;;;;;6301838;28;20469;-66
2023/02/23 10:06:15;;;;;;;24.87;19.70;;;11.30;96.00;;;;;;6304315;28;20500;-64
2023/02/23 10:09:27;;;;;;;22.63;18.30;;;11.20;96.10;;;;;;6306465;28;20471;-63
2023/02/23 10:12:39;;;;;;;26.73;20.30;;;11.10;96.30;;;;;;6302882;28;20484;-61
2023/02/23 10:15:47;;;;;;;25.80;20.67;;;11.00;96.50;;;;;;6302727;28;20473;-60
2023/02/23 10:18:59;;;;;;;25.90;19.93;;;11.00;96.70;;;;;;6303056;28;20556;-60
2023/02/23 10:22:05;;;;;;;27.03;20.43;;;11.00;96.80;;;;;;6321111;28;20476;-63
2023/02/23 10:25:13;;;;;;;25.13;18.77;;;10.90;96.90;;;;;;6327422;28;20471;-61
2023/02/23 10:28:21;;;;;;;26.03;19.83;;;11.00;97.10;;;;;;6327316;28;20457;-62
2023/02/23 10:31:28;;;;;;;29.03;20.57;;;11.10;97.10;;;;;;6327125;27;20936;-62
2023/02/23 10:34:32;;;;;;;30.30;20.53;;;11.10;97.00;;;;;;6329951;28;20492;-63
2023/02/23 10:37:35;;;;;;;28.53;21.57;;;11.10;96.90;;;;;;6326409;27;20480;-63
2023/02/23 10:40:39;;;;;;;27.63;20.73;;;11.20;97.20;;;;;;6326270;27;20472;-62
2023/02/23 10:43:44;;;;;;;25.50;21.37;;;11.40;97.10;;;;;;6313245;27;20499;-61
2023/02/23 10:46:51;;;;;;;27.67;20.40;;;11.60;97.00;;;;;;6326340;27;20481;-61
2023/02/23 10:49:58;;;;;;;26.43;21.70;;;11.70;96.10;;;;;;6325588;27;20473;-60
2023/02/23 10:53:15;;;;;;;23.80;18.60;;;11.80;96.10;;;;;;6321460;27;20760;-61
2023/02/23 10:56:20;;;;;;;25.53;21.17;;;11.90;96.10;;;;;;6300036;28;20480;-60
2023/02/23 10:59:25;;;;;;;22.90;19.70;;;12.00;95.80;;;;;;6299528;28;20489;-60
2023/02/23 11:02:30;;;;;;;27.63;21.53;;;12.10;95.80;;;;;;6299779;28;20475;-61
2023/02/23 11:05:45;;;;;;;28.23;22.40;;;12.30;95.60;;;;;;6299604;28;20473;-61
2023/02/23 11:08:48;;;;;;;28.30;22.17;;;12.40;95.20;;;;;;6299205;28;20469;-61
2023/02/23 11:12:02;;;;;;;25.67;20.43;;;12.70;95.00;;;;;;6299740;28;20515;-62
2023/02/23 11:15:27;;;;;;;26.00;21.00;;;12.80;95.00;;;;;;6299247;28;20484;-62
2023/02/23 11:18:54;;;;;;;25.97;20.50;;;13.00;94.70;;;;;;6299097;28;20517;-62
2023/02/23 11:21:57;;;;;;;24.83;20.90;;;13.20;94.00;;;;;;6303969;28;20491;-62
2023/02/23 11:25:05;;;;;;;23.73;21.23;;;13.20;93.80;;;;;;6299515;28;20469;-62
2023/02/23 11:28:19;;;;;;;25.60;21.37;;;13.30;93.80;;;;;;6318799;28;20478;-62
2023/02/23 11:31:30;;;;;;;29.93;22.57;;;13.30;93.80;;;;;;6324642;28;20498;-62
2023/02/23 11:34:39;;;;;;;28.53;22.13;;;13.30;93.80;;;;;;6324822;28;20456;-61
2023/02/23 11:37:42;;;;;;;32.40;21.00;;;13.50;93.90;;;;;;6324166;27;20476;-63
2023/02/23 11:40:59;;;;;;;27.37;21.27;;;13.80;93.40;;;;;;6324140;27;20488;-62
2023/02/23 11:44:03;;;;;;;26.63;22.40;;;14.10;93.10;;;;;;6324534;27;20618;-62
2023/02/23 11:47:19;;;;;;;26.00;21.27;;;14.20;92.50;;;;;;6314867;27;20848;-62
2023/02/23 11:50:26;;;;;;;25.60;21.83;;;14.30;92.30;;;;;;6324158;27;20472;-62
2023/02/23 11:53:34;;;;;;;24.77;20.73;;;14.30;92.00;;;;;;6316773;27;20469;-62
2023/02/23 11:56:38;;;;;;;28.00;22.13;;;14.30;92.00;;;;;;6299077;28;20477;-62
2023/02/23 11:59:44;;;;;;;24.93;20.77;;;14.30;92.00;;;;;;6298644;28;20480;-62
2023/02/23 12:02:54;;;;;;;24.93;20.77;;;14.30;91.80;;;;;;6298726;28;20480;-62
2023/02/23 12:06:01;;;;;;;27.90;22.30;;;14.20;91.90;;;;;;6298767;28;21046;-61
2023/02/23 12:09:17;;;;;;;28.40;22.60;;;14.20;92.00;;;;;;6298320;28;20470;-61
2023/02/23 12:12:23;;;;;;;24.33;20.83;;;14.20;92.00;;;;;;6298930;28;20491;-61
2023/02/23 12:15:36;;;;;;;27.70;21.53;;;14.10;92.00;;;;;;6298505;28;20437;-61
2023/02/23 12:18:48;;;;;;;31.47;23.83;;;14.00;92.40;;;;;;6300441;28;20925;-61
2023/02/23 12:22:00;;;;;;;35.57;24.60;;;13.90;92.40;;;;;;6302598;28;20481;-61
2023/02/23 12:25:06;;;;;;;33.03;22.83;;;13.90;92.50;;;;;;6298726;28;20473;-60
2023/02/23 12:28:16;;;;;;;31.43;23.43;;;13.70;92.70;;;;;;6317492;28;20495;-62
2023/02/23 12:31:27;;;;;;;34.57;25.43;;;13.80;92.90;;;;;;6323634;28;20469;-63
2023/02/23 12:34:39;;;;;;;26.33;21.97;;;13.60;93.00;;;;;;6323398;28;20469;-60
2023/02/23 12:37:46;;;;;;;28.60;23.77;;;13.50;93.60;;;;;;6326934;27;20479;-61
2023/02/23 12:40:53;;;;;;;30.43;25.23;;;13.50;93.50;;;;;;6328339;27;20472;-61
2023/02/23 12:44:01;;;;;;;31.07;25.00;;;13.50;93.50;;;;;;6328287;27;20472;-61
2023/02/23 12:47:24;;;;;;;36.63;25.70;;;13.40;93.70;;;;;;6326823;27;20475;-61
2023/02/23 12:50:32;;;;;;;35.43;26.13;;;13.20;93.80;;;;;;6316531;28;20563;-61
2023/02/23 12:53:40;;;;;;;32.40;27.20;;;13.10;94.20;;;;;;6326326;28;20890;-61
2023/02/23 12:57:03;;;;;;;30.00;25.80;;;13.10;94.20;;;;;;6320986;28;20991;-61
2023/02/23 13:00:34;;;;;;;29.80;24.03;;;13.00;94.40;;;;;;6326932;28;20549;-61
2023/02/23 13:04:01;;;;;;;34.63;25.57;;;12.90;94.70;;;;;;6327872;27;20444;-61
2023/02/23 13:07:14;;;;;;;30.00;25.70;;;12.80;95.10;;;;;;6327830;27;20472;-61
2023/02/23 13:10:27;;;;;;;29.67;25.37;;;12.80;95.30;;;;;;6327379;27;20961;-61
2023/02/23 13:13:38;;;;;;;36.40;26.70;;;12.80;95.40;;;;;;6327561;27;20464;-61
2023/02/23 13:16:48;;;;;;;40.10;26.43;;;12.70;95.50;;;;;;6327709;27;20464;-62
2023/02/23 13:19:55;;;;;;;31.60;27.10;;;12.70;95.60;;;;;;6327716;27;20474;-61
2023/02/23 13:23:10;;;;;;;33.37;26.83;;;12.70;95.70;;;;;;6326928;27;20968;-61
2023/02/23 13:26:26;;;;;;;33.47;27.03;;;12.70;95.70;;;;;;6333280;27;20476;-61
2023/02/23 13:29:36;;;;;;;38.33;28.10;;;12.70;95.80;;;;;;6327758;27;20473;-62
2023/02/23 13:32:39;;;;;;;33.40;27.23;;;12.50;96.00;;;;;;6326967;27;20813;-61
2023/02/23 13:35:43;;;;;;;38.80;30.40;;;12.40;96.40;;;;;;6327061;27;20460;-61
2023/02/23 13:39:09;;;;;;;33.30;27.87;;;12.40;96.40;;;;;;6326688;27;20468;-61
2023/02/23 13:42:32;;;;;;;32.30;28.10;;;12.40;96.50;;;;;;6326780;27;20452;-61
2023/02/23 13:45:53;;;;;;;34.03;28.53;;;12.40;96.60;;;;;;6325199;27;20479;-61
2023/02/23 13:48:59;;;;;;;37.93;29.70;;;12.40;96.70;;;;;;6325827;27;20492;-62
2023/02/23 13:52:15;;;;;;;32.97;27.73;;;12.40;96.70;;;;;;6318461;27;20557;-62
2023/02/23 13:55:37;;;;;;;39.37;27.00;;;12.40;96.70;;;;;;6304249;28;20469;-62
2023/02/23 13:58:56;;;;;;;35.07;28.30;;;12.40;96.70;;;;;;6301181;28;20480;-61
2023/02/23 14:02:06;;;;;;;37.10;26.70;;;12.40;96.70;;;;;;6301535;28;20480;-61
2023/02/23 14:05:18;;;;;;;38.63;28.70;;;12.50;96.70;;;;;;6300936;28;20953;-62
2023/02/23 14:08:27;;;;;;;37.73;28.50;;;12.50;96.60;;;;;;6301098;28;20477;-63
2023/02/23 14:11:47;;;;;;;36.00;28.77;;;12.50;96.60;;;;;;6301206;28;20465;-62
2023/02/23 14:14:50;;;;;;;30.17;26.60;;;12.50;96.70;;;;;;6301355;28;20774;-62
2023/02/23 14:17:58;;;;;;;44.77;28.30;;;12.60;97.00;;;;;;6300948;28;20473;-62
2023/02/23 14:21:16;;;;;;;33.90;26.00;;;12.60;96.60;;;;;;6300628;28;20477;-61
2023/02/23 14:24:21;;;;;;;36.13;26.03;;;12.60;96.50;;;;;;6300900;28;20603;-61
2023/02/23 14:27:37;;;;;;;28.90;23.60;;;12.60;96.40;;;;;;6313298;27;20464;-61
2023/02/23 14:30:49;;;;;;;28.50;25.40;;;12.60;96.10;;;;;;6325518;28;20796;-61
2023/02/23 14:33:59;;;;;;;34.27;26.27;;;12.60;95.70;;;;;;6326182;28;20475;-61
2023/02/23 14:37:14;;;;;;;29.90;24.27;;;12.60;95.80;;;;;;6325601;27;20815;-62
2023/02/23 14:40:22;;;;;;;33.40;25.10;;;12.50;95.30;;;;;;6326068;27;20472;-61
2023/02/23 14:43:42;;;;;;;26.30;22.70;;;12.40;95.60;;;;;;6328727;27;20936;-62
2023/02/23 14:46:56;;;;;;;29.70;23.27;;;12.40;95.60;;;;;;6328802;27;20464;-66
2023/02/23 14:50:01;;;;;;;31.67;23.63;;;12.40;95.60;;;;;;6324888;27;20477;-61
2023/02/23 14:53:08;;;;;;;30.27;24.47;;;12.30;95.70;;;;;;6322221;28;20460;-61
2023/02/23 14:56:20;;;;;;;31.77;24.53;;;12.20;96.30;;;;;;6319033;27;20472;-62
2023/02/23 14:59:27;;;;;;;31.50;25.53;;;12.10;96.30;;;;;;6321909;28;20977;-63
2023/02/23 15:02:30;;;;;;;32.37;26.57;;;12.20;96.40;;;;;;6325045;27;20476;-61
2023/02/23 15:05:36;;;;;;;37.93;27.13;;;12.20;96.50;;;;;;6325226;27;20563;-62
2023/02/23 15:08:44;;;;;;;33.27;26.73;;;12.10;96.40;;;;;;6325096;27;20506;-62
2023/02/23 15:11:52;;;;;;;33.63;24.97;;;12.10;96.50;;;;;;6324836;27;20472;-61
2023/02/23 15:15:00;;;;;;;33.37;24.50;;;12.20;96.50;;;;;;6325029;27;20556;-62
2023/02/23 15:21:49;;;;;;;29.00;22.90;;;12.20;96.30;;;;;;6324671;28;20465;-60
2023/02/23 15:24:52;;;;;;;28.13;23.77;;;12.30;96.10;;;;;;6324397;28;20543;-61
2023/02/23 15:27:55;;;;;;;30.30;25.20;;;12.30;96.10;;;;;;6325665;28;20463;-61
2023/02/23 15:31:03;;;;;;;29.57;22.70;;;12.30;96.00;;;;;;6326631;28;20471;-61
2023/02/23 15:34:10;;;;;;;30.17;23.27;;;12.30;95.90;;;;;;6314315;27;20575;-61
2023/02/23 15:37:20;;;;;;;27.30;21.53;;;12.30;95.60;;;;;;6324033;27;20464;-61
2023/02/23 15:40:27;;;;;;;31.07;22.77;;;12.30;95.60;;;;;;6321844;27;20464;-61
2023/02/23 15:43:33;;;;;;;29.87;21.37;;;12.40;95.60;;;;;;6324471;28;20483;-62
2023/02/23 15:46:40;;;;;;;24.80;21.23;;;12.30;95.60;;;;;;6324064;28;20491;-62
2023/02/23 15:49:43;;;;;;;31.03;24.03;;;12.30;95.50;;;;;;6324121;27;20468;-61
2023/02/23 15:52:50;;;;;;;34.57;29.23;;;12.30;95.50;;;;;;6322708;27;20470;-60
2023/02/23 15:55:59;;;;;;;34.80;24.70;;;12.30;95.60;;;;;;6299299;28;20513;-62
2023/02/23 15:59:09;;;;;;;29.20;22.50;;;12.10;95.80;;;;;;6298660;28;20484;-60
2023/02/23 16:02:19;;;;;;;29.33;24.70;;;12.10;96.00;;;;;;6312095;27;20469;-61
2023/02/23 16:05:24;;;;;;;30.73;23.90;;;12.10;96.20;;;;;;6319950;28;20475;-61
2023/02/23 16:08:35;;;;;;;33.73;23.10;;;12.10;96.20;;;;;;6323496;28;20452;-62
2023/02/23 16:11:40;;;;;;;26.03;23.00;;;12.10;96.10;;;;;;6324027;28;20521;-61
2023/02/23 16:14:47;;;;;;;36.87;24.60;;;12.10;96.00;;;;;;6325233;28;20460;-61
2023/02/23 16:17:57;;;;;;;31.60;22.60;;;12.20;96.00;;;;;;6328378;28;20566;-62
2023/02/23 16:21:01;;;;;;;32.77;25.20;;;12.20;96.00;;;;;;6328532;28;20506;-62
2023/02/23 16:24:10;;;;;;;33.73;25.53;;;12.20;96.00;;;;;;6328801;28;20472;-60
2023/02/23 16:27:14;;;;;;;29.47;24.60;;;12.10;95.90;;;;;;6328385;28;20844;-60
2023/02/23 16:30:22;;;;;;;30.07;24.50;;;12.10;96.10;;;;;;6328544;28;20468;-61
2023/02/23 16:33:28;;;;;;;29.77;23.20;;;12.00;96.20;;;;;;6328309;27;20457;-61
2023/02/23 16:36:37;;;;;;;30.53;24.63;;;12.00;96.20;;;;;;6328208;27;20508;-61
2023/02/23 16:39:40;;;;;;;30.60;25.10;;;12.00;96.30;;;;;;6328369;27;20460;-61
2023/02/23 16:42:44;;;;;;;29.37;23.90;;;12.00;96.30;;;;;;6328911;27;20493;-61
2023/02/23 16:45:48;;;;;;;27.90;23.40;;;11.90;96.30;;;;;;6328766;27;20464;-62
2023/02/23 16:48:58;;;;;;;31.13;24.60;;;11.90;96.30;;;;;;6328056;27;20566;-63
2023/02/23 16:52:02;;;;;;;28.30;22.93;;;11.80;96.30;;;;;;6328163;27;20484;-62
2023/02/23 16:55:06;;;;;;;31.83;25.00;;;11.70;96.40;;;;;;6307325;28;20475;-61
2023/02/23 16:58:16;;;;;;;30.67;24.73;;;11.60;96.50;;;;;;6302980;28;20468;-62
2023/02/23 17:01:20;;;;;;;25.90;22.70;;;11.50;96.70;;;;;;6302592;28;20483;-61
2023/02/23 17:04:26;;;;;;;27.10;22.73;;;11.50;96.90;;;;;;6293533;28;20494;-61
2023/02/23 17:07:30;;;;;;;32.07;23.80;;;11.40;97.10;;;;;;6302772;28;20488;-63
2023/02/23 17:10:35;;;;;;;31.50;24.73;;;11.40;97.30;;;;;;6301986;28;20468;-62
2023/02/23 17:13:40;;;;;;;33.57;24.70;;;11.30;97.40;;;;;;6313799;28;20468;-64
2023/02/23 17:16:44;;;;;;;30.80;25.73;;;11.20;97.60;;;;;;6325796;27;20769;-63
2023/02/23 17:19:50;;;;;;;30.27;24.80;;;11.20;97.80;;;;;;6326563;27;20476;-63